createdAt,value
2023-04-14T00:01:21.485Z,53.59
2023-04-14T00:03:48.342Z,53.83
2023-04-14T00:06:15.000Z,53.48
2023-04-14T00:08:41.574Z,53.61
2023-04-14T00:11:08.263Z,53.38
2023-04-14T00:13:34.909Z,53.25
2023-04-14T00:16:01.737Z,53.21
2023-04-14T00:18:28.506Z,53.12
2023-04-14T00:20:55.005Z,53.34
2023-04-14T00:23:21.621Z,52.60
2023-04-14T00:25:50.735Z,51.97
2023-04-14T00:28:17.399Z,52.81
2023-04-14T00:30:44.000Z,52.33
2023-04-14T00:33:10.814Z,52.32
2023-04-14T00:35:37.498Z,52.20
2023-04-14T00:38:04.086Z,52.38
2023-04-14T00:40:31.132Z,52.48
2023-04-14T00:42:57.676Z,52.54
2023-04-14T00:45:25.992Z,51.85
2023-04-14T00:47:52.984Z,52.16
2023-04-14T00:50:21.393Z,52.26
2023-04-14T00:52:49.699Z,51.98
2023-04-14T00:55:18.945Z,52.15
2023-04-14T00:57:46.435Z,51.88
2023-04-14T01:00:13.847Z,51.54
2023-04-14T01:02:40.691Z,51.63
2023-04-14T01:05:08.023Z,51.73
2023-04-14T01:07:35.423Z,51.76
2023-04-14T01:10:02.550Z,51.53
2023-04-14T01:12:58.539Z,51.45
2023-04-14T01:15:38.634Z,51.59
2023-04-14T01:18:18.212Z,51.60
2023-04-14T01:20:49.810Z,51.31
2023-04-14T01:23:22.949Z,51.63
2023-04-14T01:26:22.072Z,51.81
2023-04-14T01:29:02.827Z,51.73
2023-04-14T01:31:48.407Z,51.95
2023-04-14T01:34:33.679Z,51.85
2023-04-14T01:37:17.986Z,51.97
2023-04-14T01:39:52.414Z,51.72
2023-04-14T01:42:23.441Z,51.74
2023-04-14T01:44:54.787Z,51.40
2023-04-14T01:47:22.154Z,51.50
2023-04-14T01:49:51.607Z,51.26
2023-04-14T01:52:19.730Z,51.52
2023-04-14T01:54:49.731Z,51.50
2023-04-14T01:57:20.339Z,51.74
2023-04-14T01:59:48.687Z,51.44
2023-04-14T02:02:17.544Z,52.00
2023-04-14T02:04:45.810Z,51.11
2023-04-14T02:07:13.361Z,51.53
2023-04-14T02:09:41.966Z,51.55
2023-04-14T02:12:11.935Z,51.32
2023-04-14T02:14:41.824Z,51.55
2023-04-14T02:17:11.057Z,51.14
2023-04-14T02:19:38.912Z,51.06
2023-04-14T02:22:05.697Z,51.04
2023-04-14T02:24:32.502Z,51.17
2023-04-14T02:27:07.244Z,50.85
2023-04-14T02:29:36.211Z,51.20
2023-04-14T02:32:11.514Z,51.58
2023-04-14T02:34:55.748Z,52.12
2023-04-14T02:37:27.301Z,53.24
2023-04-14T02:39:59.124Z,53.87
2023-04-14T02:42:27.793Z,54.47
2023-04-14T02:45:02.712Z,54.16
2023-04-14T02:47:33.294Z,54.74
2023-04-14T02:50:04.199Z,54.49
2023-04-14T02:52:33.816Z,53.53
2023-04-14T02:55:02.439Z,52.79
2023-04-14T02:57:29.840Z,52.30
2023-04-14T02:59:58.652Z,52.05
2023-04-14T03:02:26.016Z,51.95
2023-04-14T03:04:53.483Z,52.06
2023-04-14T03:07:21.752Z,52.32
2023-04-14T03:09:50.639Z,52.41
2023-04-14T03:12:19.410Z,52.33
2023-04-14T03:14:46.833Z,52.89
2023-04-14T03:17:14.963Z,53.35
2023-04-14T03:19:42.605Z,53.70
2023-04-14T03:22:10.630Z,53.66
2023-04-14T03:24:38.931Z,53.38
2023-04-14T03:27:17.564Z,52.90
2023-04-14T03:29:51.297Z,53.59
2023-04-14T03:32:19.231Z,53.17
2023-04-14T03:34:50.210Z,53.05
2023-04-14T03:37:18.336Z,54.18
2023-04-14T03:39:50.735Z,52.71
2023-04-14T03:42:19.732Z,52.42
2023-04-14T03:44:53.134Z,52.00
2023-04-14T03:47:22.756Z,52.58
2023-04-14T03:49:52.478Z,52.88
2023-04-14T03:52:22.954Z,52.57
2023-04-14T03:54:53.393Z,52.67
2023-04-14T03:57:23.319Z,52.52
2023-04-14T03:59:52.683Z,52.88
2023-04-14T04:02:21.103Z,52.71
2023-04-14T04:04:49.784Z,53.35
2023-04-14T04:07:17.578Z,53.05
2023-04-14T04:09:47.368Z,53.28
2023-04-14T04:12:18.375Z,53.38
2023-04-14T04:14:45.142Z,53.35
2023-04-14T04:17:14.739Z,53.41
2023-04-14T04:19:43.888Z,53.36
2023-04-14T04:22:14.398Z,53.68
2023-04-14T04:24:42.550Z,53.50
2023-04-14T04:27:20.410Z,52.95
2023-04-14T04:29:54.085Z,53.37
2023-04-14T04:32:21.157Z,53.31
2023-04-14T04:34:50.516Z,53.30
2023-04-14T04:37:19.360Z,53.31
2023-04-14T04:39:45.963Z,53.02
2023-04-14T04:42:12.521Z,53.00
2023-04-14T04:44:39.143Z,52.69
2023-04-14T04:47:06.079Z,53.04
2023-04-14T04:49:32.653Z,52.97
2023-04-14T04:51:59.911Z,53.05
2023-04-14T04:54:27.234Z,53.71
2023-04-14T04:56:54.087Z,54.90
2023-04-14T04:59:20.664Z,56.30
2023-04-14T05:01:47.234Z,56.43
2023-04-14T05:04:13.884Z,56.93
2023-04-14T05:06:40.611Z,56.47
2023-04-14T05:09:07.423Z,57.04
2023-04-14T05:11:34.927Z,55.90
2023-04-14T05:14:02.070Z,55.57
2023-04-14T05:16:28.882Z,55.37
2023-04-14T05:18:56.197Z,54.78
2023-04-14T05:21:23.266Z,54.84
2023-04-14T05:23:50.026Z,54.73
2023-04-14T05:28:46.482Z,54.88
2023-04-14T05:31:13.127Z,54.89
2023-04-14T05:33:40.147Z,55.02
2023-04-14T05:36:07.150Z,55.10
2023-04-14T05:38:37.208Z,54.76
2023-04-14T05:41:03.767Z,54.91
2023-04-14T05:43:30.483Z,55.17
2023-04-14T05:45:58.549Z,54.72
2023-04-14T05:48:27.673Z,54.91
2023-04-14T05:50:54.281Z,54.70
2023-04-14T05:53:20.787Z,55.08
2023-04-14T05:55:48.797Z,54.75
2023-04-14T05:58:15.440Z,54.86
2023-04-14T06:00:41.987Z,54.94
2023-04-14T06:03:08.762Z,55.78
2023-04-14T06:05:35.694Z,56.30
2023-04-14T06:08:02.243Z,57.08
2023-04-14T06:10:28.979Z,56.89
2023-04-14T06:12:55.539Z,57.01
2023-04-14T06:15:22.114Z,57.21
2023-04-14T06:17:48.719Z,57.59
2023-04-14T06:20:15.231Z,57.82
2023-04-14T06:22:42.348Z,58.40
2023-04-14T06:25:09.341Z,58.42
2023-04-14T06:27:36.179Z,58.42
2023-04-14T06:30:02.891Z,58.85
2023-04-14T06:32:29.461Z,59.01
2023-04-14T06:34:56.076Z,59.19
2023-04-14T06:37:22.672Z,59.08
2023-04-14T06:39:49.271Z,59.75
2023-04-14T06:42:15.931Z,58.85
2023-04-14T06:44:42.575Z,59.25
2023-04-14T06:47:09.577Z,58.89
2023-04-14T06:49:37.213Z,59.22
2023-04-14T06:52:05.692Z,59.13
2023-04-14T06:54:32.325Z,59.01
2023-04-14T06:57:00.100Z,59.52
2023-04-14T06:59:29.309Z,59.62
2023-04-14T07:01:56.614Z,60.36
2023-04-14T07:04:23.218Z,60.37
2023-04-14T07:06:49.955Z,60.53
2023-04-14T07:09:16.786Z,60.32
2023-04-14T07:11:43.893Z,60.59
2023-04-14T07:14:10.441Z,60.53
2023-04-14T07:16:37.124Z,61.37
2023-04-14T07:19:03.790Z,59.74
2023-04-14T07:21:31.884Z,60.32
2023-04-14T07:23:58.666Z,60.33
2023-04-14T07:26:25.924Z,59.99
2023-04-14T07:28:52.730Z,60.78
2023-04-14T07:31:19.357Z,60.27
2023-04-14T07:33:45.951Z,60.71
2023-04-14T07:36:12.792Z,61.68
2023-04-14T07:38:39.317Z,61.11
2023-04-14T07:41:07.216Z,61.20
2023-04-14T07:43:37.004Z,61.60
2023-04-14T07:46:05.481Z,61.17
2023-04-14T07:48:34.234Z,61.61
2023-04-14T07:51:00.824Z,61.23
2023-04-14T07:53:28.278Z,61.27
2023-04-14T07:55:54.688Z,60.77
2023-04-14T07:58:24.037Z,60.80
2023-04-14T08:00:52.364Z,61.32
2023-04-14T08:03:19.208Z,60.99
2023-04-14T08:05:45.999Z,61.40
2023-04-14T08:08:13.364Z,61.13
2023-04-14T08:10:41.918Z,61.04
2023-04-14T08:13:08.923Z,60.73
2023-04-14T08:15:35.714Z,60.41
2023-04-14T08:18:02.402Z,60.14
2023-04-14T08:20:29.207Z,59.40
2023-04-14T08:22:56.723Z,59.64
2023-04-14T08:25:23.372Z,60.04
2023-04-14T08:27:50.017Z,60.29
2023-04-14T08:30:16.692Z,61.08
2023-04-14T08:32:43.368Z,61.49
2023-04-14T08:35:39.932Z,61.85
2023-04-14T08:37:56.862Z,62.48
2023-04-14T08:40:30.798Z,62.26
2023-04-14T08:42:57.468Z,61.55
2023-04-14T08:45:24.246Z,60.67
2023-04-14T08:47:53.014Z,60.04
2023-04-14T08:50:25.556Z,59.91
2023-04-14T08:52:56.947Z,59.71
2023-04-14T08:55:25.475Z,58.56
2023-04-14T08:57:52.434Z,59.44
2023-04-14T09:00:19.923Z,58.79
2023-04-14T09:02:47.169Z,58.48
2023-04-14T09:05:14.384Z,58.96
2023-04-14T09:07:42.891Z,58.95
2023-04-14T09:10:12.030Z,58.52
2023-04-14T09:12:42.283Z,58.05
2023-04-14T09:15:09.554Z,57.84
2023-04-14T09:17:36.798Z,57.46
2023-04-14T09:20:38.326Z,56.61
2023-04-14T09:22:51.009Z,57.40
2023-04-14T09:25:19.834Z,56.96
2023-04-14T09:27:48.021Z,55.81
2023-04-14T09:30:17.567Z,55.77
2023-04-14T09:32:45.026Z,54.03
2023-04-14T09:35:14.264Z,54.16
2023-04-14T09:37:44.706Z,55.41
2023-04-14T09:40:26.501Z,55.09
2023-04-14T09:42:54.235Z,53.18
2023-04-14T09:45:21.293Z,53.03
2023-04-14T09:47:48.000Z,53.10
2023-04-14T09:50:14.680Z,53.31
2023-04-14T09:52:43.660Z,53.43
2023-04-14T09:55:12.355Z,53.02
2023-04-14T09:57:43.663Z,53.95
2023-04-14T10:00:20.217Z,53.79
2023-04-14T10:02:56.343Z,57.72
2023-04-14T10:05:34.498Z,76.47
2023-04-14T10:08:05.652Z,82.34
2023-04-14T10:10:32.674Z,82.12
2023-04-14T10:13:00.152Z,77.71
2023-04-14T10:15:28.182Z,78.25
2023-04-14T10:17:55.005Z,74.53
2023-04-14T10:20:22.432Z,79.09
2023-04-14T10:22:49.944Z,78.29
2023-04-14T10:25:17.090Z,78.50
2023-04-14T10:27:45.208Z,79.24
2023-04-14T10:30:12.341Z,77.25
2023-04-14T10:32:40.643Z,78.63
2023-04-14T10:35:10.301Z,76.11
2023-04-14T10:37:37.224Z,76.57
2023-04-14T10:40:06.876Z,77.06
2023-04-14T10:42:56.402Z,77.77
2023-04-14T10:45:23.505Z,77.99
2023-04-14T10:47:50.921Z,79.07
2023-04-14T10:50:18.199Z,79.30
2023-04-14T10:52:53.734Z,79.57
2023-04-14T10:55:29.102Z,78.08
2023-04-14T10:58:08.821Z,77.61
2023-04-14T11:00:38.412Z,74.93
2023-04-14T11:03:10.789Z,73.21
2023-04-14T11:05:46.002Z,74.12
2023-04-14T11:08:14.907Z,72.58
2023-04-14T11:10:48.207Z,71.97
2023-04-14T11:13:17.199Z,70.89
2023-04-14T11:15:51.739Z,68.86
2023-04-14T11:18:33.978Z,67.27
2023-04-14T11:21:07.557Z,68.42
2023-04-14T11:23:35.550Z,67.88
2023-04-14T11:26:04.897Z,70.02
2023-04-14T11:28:39.261Z,69.26
2023-04-14T11:31:08.425Z,70.31
2023-04-14T11:33:37.773Z,67.09
2023-04-14T11:36:06.433Z,69.26
2023-04-14T11:38:36.042Z,69.30
2023-04-14T11:41:02.637Z,71.25
2023-04-14T11:43:32.528Z,68.55
2023-04-14T11:46:03.864Z,69.11
2023-04-14T11:48:30.829Z,68.88
2023-04-14T11:51:02.688Z,71.82
2023-04-14T11:53:29.453Z,68.57
2023-04-14T11:55:57.631Z,71.00
2023-04-14T11:58:26.710Z,70.52
2023-04-14T12:03:41.804Z,75.36
2023-04-14T12:06:08.998Z,85.02
2023-04-14T12:08:35.624Z,86.17
2023-04-14T12:11:16.109Z,89.45
2023-04-14T12:13:43.865Z,94.35
2023-04-14T12:16:15.278Z,88.49
2023-04-14T12:18:43.218Z,90.16
2023-04-14T12:21:11.974Z,90.27
2023-04-14T12:23:40.698Z,89.84
2023-04-14T12:26:13.042Z,91.49
2023-04-14T12:28:41.795Z,91.61
2023-04-14T12:31:09.420Z,92.22
2023-04-14T12:33:36.103Z,93.57
2023-04-14T12:36:05.046Z,90.59
2023-04-14T12:38:32.637Z,88.40
2023-04-14T12:40:59.960Z,92.84
2023-04-14T12:43:34.698Z,83.51
2023-04-14T12:46:03.881Z,92.09
2023-04-14T12:48:44.959Z,98.61
2023-04-14T12:51:14.011Z,100.00
2023-04-14T12:53:41.649Z,100.00
2023-04-14T12:56:09.682Z,100.00
2023-04-14T12:58:41.006Z,100.00
2023-04-14T13:01:09.078Z,100.00
2023-04-14T13:03:52.967Z,100.00
2023-04-14T13:06:21.606Z,100.00
2023-04-14T13:08:54.828Z,100.00
2023-04-14T13:11:23.674Z,100.00
2023-04-14T13:13:52.610Z,100.00
2023-04-14T13:16:19.506Z,100.00
2023-04-14T13:18:48.164Z,100.00
2023-04-14T13:21:15.278Z,100.00
2023-04-14T13:23:42.083Z,100.00
2023-04-14T13:26:09.249Z,100.00
2023-04-14T13:28:36.849Z,100.00
2023-04-14T13:31:04.207Z,100.00
2023-04-14T13:33:32.532Z,100.00
2023-04-14T13:35:59.112Z,100.00
2023-04-14T13:38:25.712Z,100.00
2023-04-14T13:40:52.263Z,100.00
2023-04-14T13:43:19.234Z,100.00
2023-04-14T13:45:47.193Z,100.00
2023-04-14T13:48:14.792Z,93.58
2023-04-14T13:50:41.927Z,96.38
2023-04-14T13:53:09.167Z,96.89
2023-04-14T13:55:36.356Z,95.53
2023-04-14T13:58:03.337Z,96.22
2023-04-14T14:00:30.457Z,96.69
2023-04-14T14:02:57.170Z,97.57
2023-04-14T14:05:23.977Z,97.04
2023-04-14T14:07:50.620Z,94.95
2023-04-14T14:10:17.244Z,98.40
2023-04-14T14:12:44.026Z,99.34
2023-04-14T14:15:11.388Z,100.00
2023-04-14T14:17:38.135Z,100.00
2023-04-14T14:20:06.405Z,100.00
2023-04-14T14:22:32.988Z,100.00
2023-04-14T14:25:14.975Z,100.00
2023-04-14T14:27:45.693Z,100.00
2023-04-14T14:30:12.874Z,100.00
2023-04-14T14:32:39.636Z,96.95
2023-04-14T14:35:06.504Z,94.97
2023-04-14T14:37:33.181Z,96.34
2023-04-14T14:39:59.762Z,94.76
2023-04-14T14:42:27.003Z,95.31
2023-04-14T14:44:53.925Z,93.23
2023-04-14T14:47:21.064Z,93.11
2023-04-14T14:49:59.109Z,94.55
2023-04-14T14:52:33.474Z,92.41
2023-04-14T14:55:00.644Z,91.69
2023-04-14T14:57:27.628Z,88.14
2023-04-14T14:59:54.346Z,88.20
2023-04-14T15:02:21.523Z,85.65
2023-04-14T15:04:48.986Z,84.79
2023-04-14T15:07:15.482Z,83.43
2023-04-14T15:09:42.194Z,80.55
2023-04-14T15:12:08.800Z,82.06
2023-04-14T15:14:35.875Z,80.82
2023-04-14T15:17:03.044Z,80.35
2023-04-14T15:19:29.647Z,83.34
2023-04-14T15:21:56.413Z,81.40
2023-04-14T15:24:23.045Z,81.47
2023-04-14T15:26:49.697Z,80.41
2023-04-14T15:29:16.785Z,78.78
2023-04-14T15:31:43.451Z,80.14
2023-04-14T15:34:10.092Z,82.97
2023-04-14T15:36:37.234Z,79.85
2023-04-14T15:39:03.932Z,80.31
2023-04-14T15:41:30.648Z,79.49
2023-04-14T15:43:57.411Z,80.32
2023-04-14T15:46:24.114Z,79.52
2023-04-14T15:48:50.776Z,81.04
2023-04-14T15:51:18.524Z,79.37
2023-04-14T15:53:45.084Z,80.74
2023-04-14T15:56:11.701Z,81.18
2023-04-14T15:58:38.370Z,80.04
2023-04-14T16:01:08.058Z,78.27
2023-04-14T16:03:35.665Z,80.42
2023-04-14T16:06:03.677Z,80.92
2023-04-14T16:08:30.571Z,81.38
2023-04-14T16:10:57.151Z,80.89
2023-04-14T16:13:23.852Z,80.87
2023-04-14T16:15:50.629Z,81.87
2023-04-14T16:18:17.316Z,80.25
2023-04-14T16:20:44.131Z,82.15
2023-04-14T16:23:10.837Z,81.86
2023-04-14T16:25:37.802Z,82.34
2023-04-14T16:28:04.514Z,82.97
2023-04-14T16:30:31.864Z,82.83
2023-04-14T16:32:58.589Z,82.90
2023-04-14T16:35:25.975Z,83.04
2023-04-14T16:37:53.300Z,82.34
2023-04-14T16:40:19.979Z,82.37
2023-04-14T16:42:47.306Z,83.23
2023-04-14T16:45:15.364Z,83.56
2023-04-14T16:47:42.055Z,84.48
2023-04-14T16:50:09.242Z,84.66
2023-04-14T16:52:35.818Z,84.36
2023-04-14T16:55:02.545Z,84.11
2023-04-14T16:57:29.171Z,85.37
2023-04-14T16:59:55.888Z,84.32
2023-04-14T17:02:22.909Z,84.05
2023-04-14T17:04:49.909Z,84.11
2023-04-14T17:07:16.692Z,84.09
2023-04-14T17:09:43.461Z,84.49
2023-04-14T17:12:10.333Z,84.42
2023-04-14T17:14:37.316Z,84.63
2023-04-14T17:17:04.231Z,84.67
2023-04-14T17:19:31.405Z,85.56
2023-04-14T17:21:58.285Z,84.78
2023-04-14T17:24:25.403Z,85.16
2023-04-14T17:26:52.163Z,85.04
2023-04-14T17:29:18.831Z,86.11
2023-04-14T17:31:46.155Z,85.07
2023-04-14T17:34:13.112Z,85.99
2023-04-14T17:36:39.788Z,86.65
2023-04-14T17:39:08.402Z,86.86
2023-04-14T17:41:35.594Z,88.05
2023-04-14T17:44:02.414Z,90.85
2023-04-14T17:46:35.149Z,92.18
2023-04-14T17:49:02.287Z,94.01
2023-04-14T17:51:30.661Z,95.66
2023-04-14T17:53:58.074Z,98.04
2023-04-14T17:56:24.788Z,100.00
2023-04-14T17:58:54.496Z,100.00
2023-04-14T18:01:22.257Z,100.00
2023-04-14T18:03:49.216Z,100.00
2023-04-14T18:06:16.677Z,99.93
2023-04-14T18:08:43.140Z,100.00
2023-04-14T18:11:10.477Z,100.00
2023-04-14T18:13:37.049Z,100.00
2023-04-14T18:16:04.526Z,100.00
2023-04-14T18:18:31.359Z,100.00
2023-04-14T18:20:58.255Z,99.76
2023-04-14T18:23:24.873Z,100.00
2023-04-14T18:28:31.607Z,98.91
2023-04-14T18:30:59.403Z,99.07
2023-04-14T18:33:28.279Z,98.51
2023-04-14T18:35:56.860Z,98.34
2023-04-14T18:38:24.795Z,98.38
2023-04-14T18:40:51.531Z,98.99
2023-04-14T18:43:18.644Z,98.61
2023-04-14T18:45:49.441Z,98.81
2023-04-14T18:48:16.968Z,98.40
2023-04-14T18:50:44.429Z,98.58
2023-04-14T18:53:11.783Z,99.46
2023-04-14T18:55:44.868Z,100.00
2023-04-14T18:58:12.996Z,100.00
2023-04-14T19:00:40.085Z,100.00
2023-04-14T19:03:08.570Z,100.00
2023-04-14T19:05:36.965Z,100.00
2023-04-14T19:08:04.587Z,100.00
2023-04-14T19:10:31.626Z,100.00
2023-04-14T19:12:58.364Z,100.00
2023-04-14T19:15:28.565Z,100.00
2023-04-14T19:17:56.100Z,100.00
2023-04-14T19:20:24.216Z,100.00
2023-04-14T19:22:51.243Z,100.00
2023-04-14T19:25:17.879Z,100.00
2023-04-14T19:27:44.752Z,100.00
2023-04-14T19:30:12.240Z,100.00
2023-04-14T19:32:38.996Z,100.00
2023-04-14T19:35:07.791Z,100.00
2023-04-14T19:37:35.488Z,100.00
2023-04-14T19:40:06.207Z,100.00
2023-04-14T19:42:33.531Z,100.00
2023-04-14T19:45:00.686Z,100.00
2023-04-14T19:47:27.656Z,100.00
2023-04-14T19:49:55.303Z,100.00
2023-04-14T19:52:22.456Z,100.00
2023-04-14T19:54:49.724Z,100.00
2023-04-14T19:57:16.898Z,100.00
2023-04-14T19:59:44.240Z,100.00
2023-04-14T20:02:13.176Z,100.00
2023-04-14T20:04:40.648Z,100.00
2023-04-14T20:07:07.501Z,100.00
2023-04-14T20:09:34.632Z,100.00
2023-04-14T20:12:02.415Z,100.00
2023-04-14T20:14:29.446Z,100.00
2023-04-14T20:16:56.655Z,100.00
2023-04-14T20:19:24.506Z,100.00
2023-04-14T20:21:51.391Z,100.00
2023-04-14T20:24:18.104Z,100.00
2023-04-14T20:26:45.095Z,100.00
2023-04-14T20:29:12.306Z,100.00
2023-04-14T20:31:39.765Z,100.00
2023-04-14T20:34:06.324Z,100.00
2023-04-14T20:36:36.025Z,100.00
2023-04-14T20:39:05.756Z,100.00
2023-04-14T20:41:33.761Z,100.00
2023-04-14T20:44:00.698Z,100.00
2023-04-14T20:46:27.996Z,100.00
2023-04-14T20:48:54.593Z,100.00
2023-04-14T20:51:21.217Z,100.00
2023-04-14T20:53:47.792Z,100.00
2023-04-14T20:56:14.379Z,100.00
2023-04-14T20:58:40.947Z,100.00
2023-04-14T21:01:07.687Z,100.00
2023-04-14T21:03:34.769Z,100.00
2023-04-14T21:06:02.082Z,100.00
2023-04-14T21:08:29.938Z,100.00
2023-04-14T21:11:15.518Z,100.00
2023-04-14T21:15:26.764Z,100.00
2023-04-14T21:16:30.514Z,100.00
2023-04-14T21:18:57.538Z,100.00
2023-04-14T21:21:24.295Z,100.00
2023-04-14T21:23:51.027Z,100.00
2023-04-14T21:26:17.853Z,100.00
2023-04-14T21:28:44.569Z,100.00
2023-04-14T21:31:11.471Z,100.00
2023-04-14T21:33:40.051Z,100.00
2023-04-14T21:36:07.114Z,100.00
2023-04-14T21:38:33.840Z,100.00
2023-04-14T21:41:00.885Z,100.00
2023-04-14T21:43:27.551Z,100.00
2023-04-14T21:45:54.479Z,100.00
2023-04-14T21:48:21.024Z,100.00
2023-04-14T21:50:47.785Z,100.00
2023-04-14T21:53:14.388Z,100.00
2023-04-14T21:55:41.155Z,100.00
2023-04-14T21:58:07.817Z,100.00
2023-04-14T22:00:34.782Z,100.00
2023-04-14T22:03:01.772Z,100.00
2023-04-14T22:05:28.593Z,100.00
2023-04-14T22:07:55.240Z,100.00
2023-04-14T22:10:22.142Z,100.00
2023-04-14T22:12:48.814Z,100.00
2023-04-14T22:15:15.667Z,100.00
2023-04-14T22:17:42.542Z,100.00
2023-04-14T22:20:09.834Z,100.00
2023-04-14T22:22:36.844Z,100.00
2023-04-14T22:25:04.158Z,100.00
2023-04-14T22:27:33.947Z,100.00
2023-04-14T22:30:01.959Z,100.00
2023-04-14T22:32:28.825Z,100.00
2023-04-14T22:34:55.434Z,100.00
2023-04-14T22:37:22.165Z,100.00
2023-04-14T22:39:48.950Z,100.00
2023-04-14T22:42:16.177Z,100.00
2023-04-14T22:44:42.721Z,100.00
2023-04-14T22:47:09.655Z,100.00
2023-04-14T22:49:36.443Z,100.00
2023-04-14T22:52:03.023Z,100.00
2023-04-14T22:54:29.616Z,100.00
2023-04-14T22:56:56.482Z,100.00
2023-04-14T22:59:23.547Z,100.00
2023-04-14T23:01:51.477Z,100.00
2023-04-14T23:04:18.475Z,100.00
2023-04-14T23:06:45.591Z,100.00
2023-04-14T23:09:12.581Z,100.00
2023-04-14T23:11:39.137Z,100.00
2023-04-14T23:14:06.049Z,100.00
2023-04-14T23:16:32.783Z,100.00
2023-04-14T23:18:59.720Z,100.00
2023-04-14T23:21:27.551Z,100.00
2023-04-14T23:23:54.399Z,100.00
2023-04-14T23:26:21.757Z,100.00
2023-04-14T23:28:48.400Z,100.00
2023-04-14T23:31:14.996Z,100.00
2023-04-14T23:33:41.575Z,100.00
2023-04-14T23:36:08.355Z,100.00
2023-04-14T23:38:34.936Z,100.00
2023-04-14T23:41:02.314Z,100.00
2023-04-14T23:43:29.202Z,100.00
2023-04-14T23:45:55.982Z,100.00
2023-04-14T23:48:22.727Z,100.00
2023-04-14T23:51:01.213Z,100.00
2023-04-14T23:53:36.181Z,100.00
2023-04-14T23:56:04.172Z,100.00
2023-04-14T23:58:31.662Z,100.00
